createdAt,value
2018-11-25T00:00:15.800Z,7.2
2018-11-25T00:03:15.803Z,7.2
2018-11-25T00:06:15.872Z,7.2
2018-11-25T00:09:15.275Z,7.2
2018-11-25T00:12:15.890Z,7.2
2018-11-25T00:15:15.859Z,7.2
2018-11-25T00:18:15.363Z,7.2
2018-11-25T00:21:15.624Z,7.1
2018-11-25T00:24:15.633Z,7.1
2018-11-25T00:27:15.738Z,7.1
2018-11-25T00:30:15.753Z,7.1
2018-11-25T00:33:26.089Z,7.2
2018-11-25T00:36:15.255Z,7.2
2018-11-25T00:39:15.813Z,7.2
2018-11-25T00:42:15.696Z,7.2
2018-11-25T00:45:15.980Z,7.2
2018-11-25T00:48:15.159Z,7.1
2018-11-25T00:51:15.610Z,7.1
2018-11-25T00:54:15.680Z,7.1
2018-11-25T00:57:15.582Z,7.1
2018-11-25T01:00:15.528Z,7.1
2018-11-25T01:03:15.898Z,7.1
2018-11-25T01:06:15.335Z,7.1
2018-11-25T01:09:15.443Z,7.1
2018-11-25T01:12:15.604Z,7.1
2018-11-25T01:15:15.537Z,7.1
2018-11-25T01:18:15.885Z,7.1
2018-11-25T01:21:15.125Z,7.1
2018-11-25T01:24:15.230Z,7.1
2018-11-25T01:27:15.472Z,7.1
2018-11-25T01:30:15.649Z,7.1
2018-11-25T01:33:15.985Z,7.1
2018-11-25T01:36:15.024Z,7.1
2018-11-25T01:39:16.071Z,7.1
2018-11-25T01:42:15.205Z,7.1
2018-11-25T01:45:15.507Z,7.1
2018-11-25T01:48:15.661Z,7.2
2018-11-25T01:51:15.677Z,7.2
2018-11-25T01:54:15.829Z,7.2
2018-11-25T01:57:15.038Z,7.2
2018-11-25T02:00:14.923Z,7.2
2018-11-25T02:03:15.964Z,7.1
2018-11-25T02:06:15.008Z,7.1
2018-11-25T02:09:15.150Z,7.1
2018-11-25T02:12:15.109Z,7.1
2018-11-25T02:15:15.057Z,7.0
2018-11-25T02:18:15.069Z,7.1
2018-11-25T02:21:15.106Z,7.1
2018-11-25T02:24:15.148Z,7.1
2018-11-25T02:27:15.107Z,7.1
2018-11-25T02:30:15.062Z,7.1
2018-11-25T02:33:15.170Z,7.1
2018-11-25T02:36:15.005Z,7.1
2018-11-25T02:39:15.058Z,7.1
2018-11-25T02:42:15.042Z,7.1
2018-11-25T02:45:14.944Z,7.1
2018-11-25T02:48:15.031Z,7.1
2018-11-25T02:51:15.164Z,7.1
2018-11-25T02:54:15.255Z,7.0
2018-11-25T02:57:15.329Z,7.0
2018-11-25T03:00:15.250Z,7.0
2018-11-25T03:03:15.668Z,7.0
2018-11-25T03:06:15.713Z,7.0
2018-11-25T03:09:15.766Z,7.0
2018-11-25T03:12:15.771Z,7.0
2018-11-25T03:15:15.420Z,7.0
2018-11-25T03:18:15.657Z,7.0
2018-11-25T03:21:15.877Z,7.0
2018-11-25T03:24:15.472Z,7.0
2018-11-25T03:27:15.325Z,7.0
2018-11-25T03:30:15.204Z,7.1
2018-11-25T03:33:15.915Z,7.1
2018-11-25T03:36:15.185Z,7.1
2018-11-25T03:39:15.901Z,7.0
2018-11-25T03:42:15.823Z,7.0
2018-11-25T03:45:15.386Z,7.1
2018-11-25T03:48:15.131Z,7.1
2018-11-25T03:51:16.037Z,7.1
2018-11-25T03:54:15.544Z,7.1
2018-11-25T03:57:15.705Z,7.1
2018-11-25T04:00:15.726Z,7.1
2018-11-25T04:03:15.766Z,7.1
2018-11-25T04:06:15.835Z,7.2
2018-11-25T04:09:15.936Z,7.2
2018-11-25T04:12:15.814Z,7.2
2018-11-25T04:15:15.850Z,7.2
2018-11-25T04:18:14.921Z,7.1
2018-11-25T04:21:15.213Z,7.1
2018-11-25T04:24:15.164Z,7.1
2018-11-25T04:27:15.225Z,7.1
2018-11-25T04:30:15.828Z,7.2
2018-11-25T04:33:15.834Z,7.2
2018-11-25T04:36:15.110Z,7.2
2018-11-25T04:39:15.729Z,7.2
2018-11-25T04:42:15.044Z,7.2
2018-11-25T04:45:15.920Z,7.2
2018-11-25T04:48:15.235Z,7.3
2018-11-25T04:51:15.283Z,7.3
2018-11-25T04:54:15.514Z,7.3
2018-11-25T04:57:15.866Z,7.2
2018-11-25T05:00:15.184Z,7.2
2018-11-25T05:03:15.387Z,7.2
2018-11-25T05:06:15.386Z,7.3
2018-11-25T05:09:15.333Z,7.2
2018-11-25T05:12:15.296Z,7.2
2018-11-25T05:15:15.490Z,7.2
2018-11-25T05:18:15.717Z,7.2
2018-11-25T05:21:15.916Z,7.2
2018-11-25T05:24:15.821Z,7.2
2018-11-25T05:27:15.066Z,7.2
2018-11-25T05:30:15.100Z,7.2
2018-11-25T05:33:15.205Z,7.2
2018-11-25T05:36:15.231Z,7.3
2018-11-25T05:39:15.344Z,7.3
2018-11-25T05:42:15.341Z,7.3
2018-11-25T05:45:15.603Z,7.3
2018-11-25T05:48:15.431Z,7.3
2018-11-25T05:51:15.912Z,7.3
2018-11-25T05:54:15.791Z,7.3
2018-11-25T05:57:15.900Z,7.3
2018-11-25T06:00:15.468Z,7.3
2018-11-25T06:03:15.382Z,7.3
2018-11-25T06:06:15.485Z,7.3
2018-11-25T06:09:15.681Z,7.4
2018-11-25T06:12:15.647Z,7.3
2018-11-25T06:15:15.925Z,7.3
2018-11-25T06:18:15.026Z,7.4
2018-11-25T06:21:15.032Z,7.3
2018-11-25T06:24:15.365Z,7.3
2018-11-25T06:27:15.374Z,7.3
2018-11-25T06:30:15.966Z,7.3
2018-11-25T06:33:15.493Z,7.3
2018-11-25T06:36:15.777Z,7.3
2018-11-25T06:39:15.920Z,7.3
2018-11-25T06:42:15.149Z,7.3
2018-11-25T06:45:15.503Z,7.3
2018-11-25T06:48:16.007Z,7.3
2018-11-25T06:51:15.241Z,7.3
2018-11-25T06:54:15.618Z,7.3
2018-11-25T06:57:15.490Z,7.2
2018-11-25T07:00:15.910Z,7.2
2018-11-25T07:03:15.362Z,7.2
2018-11-25T07:06:15.643Z,7.2
2018-11-25T07:09:15.819Z,7.2
2018-11-25T07:12:15.135Z,7.2
2018-11-25T07:15:15.380Z,7.2
2018-11-25T07:18:15.610Z,7.2
2018-11-25T07:21:15.728Z,7.2
2018-11-25T07:24:15.238Z,7.2
2018-11-25T07:27:15.228Z,7.2
2018-11-25T07:30:15.515Z,7.2
2018-11-25T07:33:15.707Z,7.2
2018-11-25T07:36:15.861Z,7.3
2018-11-25T07:39:15.006Z,7.3
2018-11-25T07:42:15.165Z,7.3
2018-11-25T07:45:15.176Z,7.4
2018-11-25T07:48:15.929Z,7.5
2018-11-25T07:51:15.287Z,7.7
2018-11-25T07:54:15.187Z,7.8
2018-11-25T07:57:15.466Z,8.0
2018-11-25T08:00:15.900Z,8.1
2018-11-25T08:03:15.280Z,8.2
2018-11-25T08:06:15.361Z,8.4
2018-11-25T08:09:15.565Z,8.5
2018-11-25T08:12:15.784Z,8.5
2018-11-25T08:15:15.184Z,8.7
2018-11-25T08:18:15.669Z,8.9
2018-11-25T08:21:15.868Z,8.9
2018-11-25T08:24:15.043Z,9.0
2018-11-25T08:27:15.940Z,9.0
2018-11-25T08:30:14.933Z,9.0
2018-11-25T08:33:15.286Z,8.9
2018-11-25T08:36:15.887Z,8.8
2018-11-25T08:39:15.126Z,8.8
2018-11-25T08:42:15.303Z,8.7
2018-11-25T08:45:15.605Z,8.7
2018-11-25T08:48:15.677Z,8.7
2018-11-25T08:51:15.785Z,8.7
2018-11-25T08:54:15.453Z,8.7
2018-11-25T08:57:15.663Z,8.7
2018-11-25T09:00:15.125Z,8.7
2018-11-25T09:03:15.747Z,8.7
2018-11-25T09:06:15.896Z,8.8
2018-11-25T09:09:15.225Z,8.9
2018-11-25T09:12:15.492Z,8.9
2018-11-25T09:15:15.771Z,8.9
2018-11-25T09:18:15.356Z,8.9
2018-11-25T09:21:15.657Z,8.8
2018-11-25T09:24:16.010Z,8.8
2018-11-25T09:27:15.256Z,8.7
2018-11-25T09:30:15.614Z,8.6
2018-11-25T09:33:15.197Z,8.5
2018-11-25T09:36:15.287Z,8.5
2018-11-25T09:39:15.646Z,8.4
2018-11-25T09:42:14.922Z,8.3
2018-11-25T09:45:15.353Z,8.3
2018-11-25T09:48:16.135Z,8.3
2018-11-25T09:51:15.246Z,8.2
2018-11-25T09:54:15.659Z,8.2
2018-11-25T09:57:15.103Z,8.1
2018-11-25T10:00:15.276Z,8.0
2018-11-25T10:03:15.266Z,8.0
2018-11-25T10:06:15.320Z,8.0
2018-11-25T10:09:15.831Z,8.0
2018-11-25T10:12:15.020Z,8.0
2018-11-25T10:15:15.283Z,8.1
2018-11-25T10:18:15.851Z,8.2
2018-11-25T10:21:15.907Z,8.4
2018-11-25T10:24:15.144Z,8.5
2018-11-25T10:27:15.366Z,8.7
2018-11-25T10:30:15.430Z,8.9
2018-11-25T10:33:15.863Z,9.1
2018-11-25T10:36:15.919Z,9.3
2018-11-25T10:39:15.962Z,9.4
2018-11-25T10:42:15.153Z,9.5
2018-11-25T10:45:15.428Z,9.5
2018-11-25T10:48:15.591Z,9.5
2018-11-25T10:51:15.718Z,9.6
2018-11-25T10:54:15.231Z,9.6
2018-11-25T10:57:15.423Z,9.6
2018-11-25T11:00:15.333Z,9.7
2018-11-25T11:03:16.027Z,9.7
2018-11-25T11:06:15.338Z,9.8
2018-11-25T11:09:15.255Z,9.9
2018-11-25T11:12:15.586Z,9.9
2018-11-25T11:15:16.054Z,9.9
2018-11-25T11:18:15.381Z,9.9
2018-11-25T11:21:15.716Z,9.8
2018-11-25T11:24:15.202Z,9.7
2018-11-25T11:27:15.479Z,9.7
2018-11-25T11:30:15.514Z,9.7
2018-11-25T11:33:15.882Z,9.6
2018-11-25T11:36:15.088Z,9.6
2018-11-25T11:39:15.268Z,9.6
2018-11-25T11:42:15.347Z,9.5
2018-11-25T11:45:15.832Z,9.5
2018-11-25T11:48:15.196Z,9.6
2018-11-25T11:51:15.280Z,9.7
2018-11-25T11:54:15.354Z,9.8
2018-11-25T11:57:15.674Z,10.0
2018-11-25T12:00:15.764Z,10.2
2018-11-25T12:03:15.449Z,10.4
2018-11-25T12:06:15.451Z,10.5
2018-11-25T12:09:15.804Z,10.5
2018-11-25T12:12:15.892Z,10.5
2018-11-25T12:15:15.013Z,10.5
2018-11-25T12:18:15.144Z,10.5
2018-11-25T12:21:15.173Z,10.4
2018-11-25T12:24:15.329Z,10.4
2018-11-25T12:27:15.809Z,10.3
2018-11-25T12:30:15.936Z,10.3
2018-11-25T12:33:15.269Z,10.2
2018-11-25T12:36:15.431Z,10.2
2018-11-25T12:39:15.602Z,10.2
2018-11-25T12:42:15.756Z,10.2
2018-11-25T12:45:15.296Z,10.0
2018-11-25T12:48:15.410Z,10.0
2018-11-25T12:51:15.555Z,9.9
2018-11-25T12:54:15.896Z,9.9
2018-11-25T12:57:15.144Z,9.9
2018-11-25T13:00:15.349Z,9.9
2018-11-25T13:03:15.241Z,9.9
2018-11-25T13:06:15.545Z,10.0
2018-11-25T13:09:15.080Z,10.1
2018-11-25T13:12:15.037Z,10.0
2018-11-25T13:15:16.535Z,10.0
2018-11-25T13:18:15.878Z,10.0
2018-11-25T13:21:15.259Z,10.1
2018-11-25T13:24:15.557Z,10.1
2018-11-25T13:27:15.874Z,10.1
2018-11-25T13:30:15.041Z,10.0
2018-11-25T13:33:15.164Z,9.9
2018-11-25T13:36:15.094Z,9.9
2018-11-25T13:39:15.328Z,9.9
2018-11-25T13:42:16.306Z,9.9
2018-11-25T13:45:15.565Z,9.8
2018-11-25T13:48:15.786Z,9.8
2018-11-25T13:51:15.897Z,9.7
2018-11-25T13:54:15.224Z,9.7
2018-11-25T13:57:15.525Z,9.7
2018-11-25T14:00:15.846Z,9.6
2018-11-25T14:03:14.946Z,9.6
2018-11-25T14:06:15.862Z,9.4
2018-11-25T14:09:15.104Z,9.3
2018-11-25T14:12:15.546Z,9.3
2018-11-25T14:15:15.630Z,9.2
2018-11-25T14:18:15.873Z,9.1
2018-11-25T14:21:15.801Z,9.1
2018-11-25T14:24:15.280Z,9.1
2018-11-25T14:27:15.511Z,9.1
2018-11-25T14:30:15.702Z,9.1
2018-11-25T14:33:15.227Z,9.1
2018-11-25T14:36:16.059Z,9.0
2018-11-25T14:39:15.238Z,9.0
2018-11-25T14:42:15.419Z,9.0
2018-11-25T14:45:15.804Z,9.0
2018-11-25T14:48:14.971Z,9.0
2018-11-25T14:51:15.067Z,9.0
2018-11-25T14:54:15.139Z,9.0
2018-11-25T14:57:15.205Z,9.0
2018-11-25T15:00:15.176Z,9.0
2018-11-25T15:03:15.253Z,8.9
2018-11-25T15:06:15.434Z,8.9
2018-11-25T15:09:15.744Z,8.9
2018-11-25T15:12:15.691Z,8.9
2018-11-25T15:15:15.888Z,8.8
2018-11-25T15:18:15.217Z,8.8
2018-11-25T15:21:15.251Z,8.8
2018-11-25T15:24:15.465Z,8.7
2018-11-25T15:27:15.832Z,8.7
2018-11-25T15:30:33.516Z,8.7
2018-11-25T15:33:17.050Z,8.7
2018-11-25T15:36:16.040Z,8.7
2018-11-25T15:39:16.230Z,8.7
2018-11-25T15:42:23.393Z,8.7
2018-11-25T15:45:16.324Z,8.7
2018-11-25T15:57:18.063Z,8.8
2018-11-25T16:00:15.205Z,8.7
2018-11-25T16:03:15.186Z,8.7
2018-11-25T16:06:15.138Z,8.7
2018-11-25T16:09:15.432Z,8.7
2018-11-25T16:12:15.652Z,8.7
2018-11-25T16:15:14.882Z,8.7
2018-11-25T16:18:15.403Z,8.7
2018-11-25T16:21:15.539Z,8.6
2018-11-25T16:24:14.942Z,8.6
2018-11-25T16:27:15.896Z,8.6
2018-11-25T16:30:15.203Z,8.5
2018-11-25T16:48:14.636Z,8.5
2018-11-25T16:51:15.439Z,8.5
2018-11-25T16:54:14.985Z,8.4
2018-11-25T16:57:15.858Z,8.4
2018-11-25T17:00:15.557Z,8.3
2018-11-25T17:03:15.360Z,8.3
2018-11-25T17:06:14.913Z,8.3
2018-11-25T17:09:15.630Z,8.3
2018-11-25T17:12:15.457Z,8.3
2018-11-25T17:15:15.095Z,8.2
2018-11-25T17:18:15.470Z,8.3
2018-11-25T17:21:15.087Z,8.2
2018-11-25T17:24:15.614Z,8.2
2018-11-25T17:27:15.289Z,8.2
2018-11-25T17:30:15.150Z,8.2
2018-11-25T17:33:15.889Z,8.2
2018-11-25T17:36:15.452Z,8.2
2018-11-25T17:39:15.196Z,8.2
2018-11-25T17:42:15.908Z,8.2
2018-11-25T17:45:15.624Z,8.2
2018-11-25T17:48:15.313Z,8.2
2018-11-25T17:51:15.009Z,8.2
2018-11-25T17:54:15.740Z,8.2
2018-11-25T17:57:15.367Z,8.2
2018-11-25T18:00:15.141Z,8.2
2018-11-25T18:03:15.755Z,8.1
2018-11-25T18:06:15.494Z,8.1
2018-11-25T18:09:15.226Z,8.1
2018-11-25T18:12:14.848Z,8.1
2018-11-25T18:15:15.536Z,8.1
2018-11-25T18:18:15.276Z,8.1
2018-11-25T18:21:15.880Z,8.1
2018-11-25T18:24:14.895Z,8.1
2018-11-25T18:27:15.097Z,8.1
2018-11-25T18:30:15.584Z,8.1
2018-11-25T18:33:15.920Z,8.0
2018-11-25T18:36:15.890Z,8.0
2018-11-25T18:39:15.734Z,8.0
2018-11-25T18:42:15.551Z,8.0
2018-11-25T18:45:15.587Z,8.0
2018-11-25T18:48:16.051Z,8.0
2018-11-25T18:51:15.021Z,8.0
2018-11-25T18:54:15.884Z,8.0
2018-11-25T18:57:15.958Z,8.0
2018-11-25T19:00:15.125Z,8.0
2018-11-25T19:03:28.536Z,8.0
2018-11-25T19:06:39.411Z,8.0
2018-11-25T19:09:20.172Z,8.0
2018-11-25T19:12:44.088Z,8.0
2018-11-25T19:15:30.125Z,8.0
2018-11-25T19:21:23.091Z,7.9
2018-11-25T19:24:15.441Z,7.8
2018-11-25T19:27:15.348Z,7.8
2018-11-25T19:30:15.218Z,7.8
2018-11-25T19:33:15.081Z,7.8
2018-11-25T19:36:15.871Z,7.8
2018-11-25T19:39:15.726Z,7.8
2018-11-25T19:42:15.487Z,7.8
2018-11-25T19:45:15.804Z,7.8
2018-11-25T19:48:15.612Z,7.8
2018-11-25T19:51:17.602Z,7.8
2018-11-25T19:54:15.846Z,7.7
2018-11-25T19:57:15.756Z,7.7
2018-11-25T20:00:15.796Z,7.7
2018-11-25T20:03:15.081Z,7.7
2018-11-25T20:06:15.531Z,7.6
2018-11-25T20:09:15.532Z,7.6
2018-11-25T20:12:15.153Z,7.6
2018-11-25T20:15:15.902Z,7.5
2018-11-25T20:18:15.039Z,7.5
2018-11-25T20:21:14.955Z,7.5
2018-11-25T20:24:15.644Z,7.5
2018-11-25T20:27:15.385Z,7.5
2018-11-25T20:30:15.956Z,7.5
2018-11-25T20:33:15.101Z,7.4
2018-11-25T20:36:15.652Z,7.4
2018-11-25T20:39:15.615Z,7.3
2018-11-25T20:42:15.453Z,7.3
2018-11-25T20:45:15.227Z,7.3
2018-11-25T20:48:15.711Z,7.2
2018-11-25T20:51:15.585Z,7.2
2018-11-25T20:54:15.129Z,7.2
2018-11-25T20:57:14.915Z,7.2
2018-11-25T21:00:15.798Z,7.2
2018-11-25T21:03:15.279Z,7.1
2018-11-25T21:06:15.142Z,7.1
2018-11-25T21:09:14.931Z,7.1
2018-11-25T21:12:15.864Z,7.1
2018-11-25T21:15:15.734Z,7.1
2018-11-25T21:18:15.748Z,7.1
2018-11-25T21:21:15.114Z,7.1
2018-11-25T21:24:16.044Z,7.2
2018-11-25T21:27:15.872Z,7.2
2018-11-25T21:30:15.613Z,7.2
2018-11-25T21:33:15.731Z,7.2
2018-11-25T21:36:15.605Z,7.2
2018-11-25T21:39:15.715Z,7.2
2018-11-25T21:42:15.604Z,7.1
2018-11-25T21:45:15.294Z,7.1
2018-11-25T21:48:15.126Z,7.1
2018-11-25T21:51:15.912Z,7.1
2018-11-25T21:54:15.686Z,7.2
2018-11-25T21:57:15.573Z,7.2
2018-11-25T22:00:15.432Z,7.2
2018-11-25T22:03:15.755Z,7.2
2018-11-25T22:06:15.610Z,7.3
2018-11-25T22:09:15.338Z,7.3
2018-11-25T22:12:15.004Z,7.3
2018-11-25T22:15:15.486Z,7.4
2018-11-25T22:18:15.516Z,7.4
2018-11-25T22:21:15.322Z,7.4
2018-11-25T22:24:15.176Z,7.5
2018-11-25T22:27:15.292Z,7.5
2018-11-25T22:30:15.071Z,7.6
2018-11-25T22:33:15.544Z,7.6
2018-11-25T22:36:15.315Z,7.7
2018-11-25T22:39:15.520Z,7.7
2018-11-25T22:42:15.021Z,7.7
2018-11-25T22:45:15.154Z,7.7
2018-11-25T22:48:15.539Z,7.7
2018-11-25T22:51:14.948Z,7.7
2018-11-25T22:54:15.310Z,7.7
2018-11-25T22:57:15.612Z,7.7
2018-11-25T23:00:15.846Z,7.7
2018-11-25T23:03:15.579Z,7.7
2018-11-25T23:06:15.329Z,7.6
2018-11-25T23:09:15.463Z,7.6
2018-11-25T23:12:15.208Z,7.7
2018-11-25T23:15:15.879Z,7.7
2018-11-25T23:18:15.124Z,7.7
2018-11-25T23:21:15.871Z,7.7
2018-11-25T23:24:15.739Z,7.6
2018-11-25T23:27:15.492Z,7.6
2018-11-25T23:30:15.411Z,7.6
2018-11-25T23:33:15.123Z,7.6
2018-11-25T23:36:15.839Z,7.6
2018-11-25T23:39:15.666Z,7.5
2018-11-25T23:42:15.344Z,7.5
2018-11-25T23:45:14.975Z,7.6
2018-11-25T23:48:15.712Z,7.5
2018-11-25T23:51:15.421Z,7.5
2018-11-25T23:54:15.303Z,7.5
2018-11-25T23:57:14.993Z,7.5
